createdAt,value
2023-02-08T00:02:57.610Z,-4.86
2023-02-08T00:06:03.355Z,-4.77
2023-02-08T00:09:11.183Z,-4.50
2023-02-08T00:12:22.222Z,-4.58
2023-02-08T00:15:27.157Z,-4.39
2023-02-08T00:18:31.196Z,-4.33
2023-02-08T00:21:36.546Z,-4.28
2023-02-08T00:24:41.443Z,-4.21
2023-02-08T00:27:45.067Z,-4.17
2023-02-08T00:30:50.087Z,-4.08
2023-02-08T00:33:53.585Z,-4.05
2023-02-08T00:36:57.316Z,-4.11
2023-02-08T00:40:02.982Z,-4.08
2023-02-08T00:43:10.885Z,-4.00
2023-02-08T00:46:17.044Z,-4.00
2023-02-08T00:49:22.898Z,-3.87
2023-02-08T00:52:36.985Z,-3.94
2023-02-08T00:55:53.664Z,-3.84
2023-02-08T00:59:03.633Z,-3.86
2023-02-08T01:02:13.659Z,-3.83
2023-02-08T01:05:18.535Z,-3.81
2023-02-08T01:08:25.130Z,-3.78
2023-02-08T01:11:30.426Z,-3.72
2023-02-08T01:14:42.087Z,-3.65
2023-02-08T01:17:50.276Z,-3.43
2023-02-08T01:21:05.110Z,-3.42
2023-02-08T01:24:12.630Z,-3.44
2023-02-08T01:27:20.708Z,-3.38
2023-02-08T01:30:29.128Z,-3.33
2023-02-08T01:33:38.051Z,-3.26
2023-02-08T01:36:42.664Z,-3.28
2023-02-08T01:39:51.037Z,-3.26
2023-02-08T01:43:00.593Z,-3.19
2023-02-08T01:46:08.862Z,-3.10
2023-02-08T01:49:28.598Z,-3.07
2023-02-08T01:52:36.514Z,-3.03
2023-02-08T01:55:50.385Z,-2.91
2023-02-08T01:59:00.390Z,-2.95
2023-02-08T02:02:09.786Z,-2.79
2023-02-08T02:05:16.922Z,-2.72
2023-02-08T02:08:22.706Z,-2.67
2023-02-08T02:11:31.696Z,-2.73
2023-02-08T02:14:43.439Z,-2.72
2023-02-08T02:17:50.627Z,-2.74
2023-02-08T02:21:03.130Z,-2.73
2023-02-08T02:24:27.441Z,-2.58
2023-02-08T02:27:32.616Z,-2.57
2023-02-08T02:30:58.834Z,-2.49
2023-02-08T02:34:12.413Z,-2.40
2023-02-08T02:37:30.922Z,-2.42
2023-02-08T02:40:53.683Z,-2.31
2023-02-08T02:44:07.249Z,-2.26
2023-02-08T02:47:31.719Z,-2.42
2023-02-08T02:50:43.778Z,-2.36
2023-02-08T02:54:07.272Z,-2.26
2023-02-08T02:57:16.382Z,-2.38
2023-02-08T03:00:25.659Z,-2.38
2023-02-08T03:03:35.064Z,-2.36
2023-02-08T03:06:46.097Z,-2.27
2023-02-08T03:10:12.522Z,-2.29
2023-02-08T03:13:34.001Z,-2.27
2023-02-08T03:17:01.752Z,-2.18
2023-02-08T03:20:13.017Z,-2.14
2023-02-08T03:23:34.097Z,-2.21
2023-02-08T03:26:45.923Z,-2.17
2023-02-08T03:29:54.154Z,-2.23
2023-02-08T03:33:06.257Z,-2.07
2023-02-08T03:36:30.131Z,-2.10
2023-02-08T03:39:37.872Z,-1.96
2023-02-08T03:42:49.535Z,-2.06
2023-02-08T03:46:00.726Z,-1.96
2023-02-08T03:49:11.718Z,-1.93
2023-02-08T03:52:18.957Z,-2.01
2023-02-08T03:55:31.269Z,-1.95
2023-02-08T03:58:42.223Z,-1.91
2023-02-08T04:01:55.147Z,-1.84
2023-02-08T04:05:05.563Z,-1.96
2023-02-08T04:08:12.640Z,-1.86
2023-02-08T04:11:23.376Z,-1.88
2023-02-08T04:14:34.334Z,-2.00
2023-02-08T04:17:46.153Z,-1.95
2023-02-08T04:20:56.944Z,-1.99
2023-02-08T04:24:05.949Z,-1.92
2023-02-08T04:27:12.662Z,-1.95
2023-02-08T04:30:21.057Z,-1.82
2023-02-08T04:33:28.062Z,-1.78
2023-02-08T04:36:34.924Z,-1.81
2023-02-08T04:39:40.876Z,-1.72
2023-02-08T04:42:53.460Z,-1.74
2023-02-08T04:46:02.389Z,-1.77
2023-02-08T04:49:13.368Z,-1.71
2023-02-08T04:52:22.339Z,-1.82
2023-02-08T04:55:31.292Z,-1.86
2023-02-08T04:58:39.086Z,-1.96
2023-02-08T05:01:47.249Z,-1.93
2023-02-08T05:04:53.084Z,-1.92
2023-02-08T05:07:59.304Z,-1.96
2023-02-08T05:11:09.088Z,-1.93
2023-02-08T05:14:16.945Z,-1.84
2023-02-08T05:17:25.459Z,-2.03
2023-02-08T05:20:36.003Z,-2.02
2023-02-08T05:23:44.825Z,-2.04
2023-02-08T05:26:53.249Z,-1.98
2023-02-08T05:30:01.433Z,-2.07
2023-02-08T05:33:11.610Z,-2.07
2023-02-08T05:36:18.782Z,-2.03
2023-02-08T05:39:28.046Z,-2.04
2023-02-08T05:42:34.616Z,-2.07
2023-02-08T05:45:42.712Z,-2.10
2023-02-08T05:48:52.792Z,-2.25
2023-02-08T05:51:59.407Z,-2.39
2023-02-08T05:55:04.257Z,-2.29
2023-02-08T05:58:07.862Z,-2.46
2023-02-08T06:01:13.802Z,-2.40
2023-02-08T06:04:20.178Z,-2.46
2023-02-08T06:07:25.995Z,-2.42
2023-02-08T06:10:32.336Z,-2.47
2023-02-08T06:13:36.963Z,-2.64
2023-02-08T06:16:43.691Z,-2.62
2023-02-08T06:19:49.436Z,-2.54
2023-02-08T06:22:56.082Z,-2.57
2023-02-08T06:26:01.154Z,-2.72
2023-02-08T06:29:06.487Z,-2.75
2023-02-08T06:32:10.585Z,-2.76
2023-02-08T06:35:14.722Z,-2.75
2023-02-08T06:38:18.212Z,-2.66
2023-02-08T06:41:23.537Z,-2.57
2023-02-08T06:44:27.668Z,-2.57
2023-02-08T06:47:31.947Z,-2.49
2023-02-08T06:50:38.378Z,-2.47
2023-02-08T06:53:42.002Z,-2.46
2023-02-08T06:56:45.724Z,-2.45
2023-02-08T06:59:50.529Z,-2.36
2023-02-08T07:02:54.137Z,-2.23
2023-02-08T07:06:04.981Z,-2.06
2023-02-08T07:09:08.876Z,-2.05
2023-02-08T07:12:12.697Z,-2.06
2023-02-08T07:15:16.545Z,-2.06
2023-02-08T07:18:20.251Z,-1.99
2023-02-08T07:21:24.642Z,-2.06
2023-02-08T07:24:30.298Z,-1.98
2023-02-08T07:27:37.222Z,-1.87
2023-02-08T07:30:44.867Z,-1.92
2023-02-08T07:33:47.872Z,-1.83
2023-02-08T07:36:51.383Z,-1.75
2023-02-08T07:39:54.407Z,-1.66
2023-02-08T07:42:59.064Z,-1.66
2023-02-08T07:46:11.587Z,-1.59
2023-02-08T07:49:15.430Z,-1.49
2023-02-08T07:52:19.142Z,-1.49
2023-02-08T07:55:23.040Z,-1.56
2023-02-08T07:58:27.016Z,-1.49
2023-02-08T08:01:30.701Z,-1.41
2023-02-08T08:04:34.506Z,-1.45
2023-02-08T08:07:38.381Z,-1.40
2023-02-08T08:10:42.189Z,-1.37
2023-02-08T08:13:46.261Z,-1.26
2023-02-08T08:16:50.312Z,-1.15
2023-02-08T08:19:54.250Z,-1.12
2023-02-08T08:22:58.206Z,-1.15
2023-02-08T08:26:11.876Z,-0.93
2023-02-08T08:29:17.006Z,-0.52
2023-02-08T08:32:20.531Z,0.78
2023-02-08T08:35:24.225Z,2.74
2023-02-08T08:38:27.449Z,3.71
2023-02-08T08:41:32.622Z,2.31
2023-02-08T08:44:37.232Z,0.80
2023-02-08T08:47:40.398Z,0.37
2023-02-08T08:50:44.984Z,0.28
2023-02-08T08:53:49.303Z,0.30
2023-02-08T08:56:53.218Z,0.22
2023-02-08T08:59:59.309Z,0.37
2023-02-08T09:03:03.651Z,0.39
2023-02-08T09:06:09.031Z,0.71
2023-02-08T09:09:15.627Z,1.05
2023-02-08T09:12:19.894Z,1.39
2023-02-08T09:15:23.565Z,1.60
2023-02-08T09:18:28.042Z,1.47
2023-02-08T09:21:32.402Z,1.46
2023-02-08T09:24:36.285Z,1.28
2023-02-08T09:27:40.293Z,1.41
2023-02-08T09:30:48.020Z,1.49
2023-02-08T09:33:52.554Z,1.44
2023-02-08T09:36:56.895Z,1.45
2023-02-08T09:40:02.146Z,1.44
2023-02-08T09:43:06.291Z,1.35
2023-02-08T09:46:17.693Z,1.49
2023-02-08T09:49:24.807Z,1.68
2023-02-08T09:52:47.703Z,1.82
2023-02-08T09:56:00.690Z,1.69
2023-02-08T09:59:04.545Z,1.75
2023-02-08T10:02:25.064Z,1.80
2023-02-08T10:05:29.253Z,1.89
2023-02-08T10:08:35.472Z,1.84
2023-02-08T10:11:54.015Z,1.82
2023-02-08T10:14:59.793Z,1.53
2023-02-08T10:18:05.670Z,1.70
2023-02-08T10:21:08.553Z,1.62
2023-02-08T10:24:30.771Z,1.69
2023-02-08T10:27:37.679Z,1.83
2023-02-08T10:30:46.633Z,1.86
2023-02-08T10:33:52.633Z,1.98
2023-02-08T10:36:56.602Z,2.01
2023-02-08T10:40:05.196Z,1.98
2023-02-08T10:43:12.959Z,2.09
2023-02-08T10:46:16.388Z,1.97
2023-02-08T10:49:22.691Z,1.96
2023-02-08T10:52:27.223Z,2.05
2023-02-08T10:55:35.962Z,2.26
2023-02-08T10:58:40.153Z,2.33
2023-02-08T11:01:47.249Z,2.33
2023-02-08T11:05:00.287Z,2.29
2023-02-08T11:08:07.583Z,1.91
2023-02-08T11:11:12.014Z,2.11
2023-02-08T11:14:20.174Z,2.21
2023-02-08T11:17:25.985Z,2.38
2023-02-08T11:20:37.300Z,2.44
2023-02-08T11:23:43.482Z,2.26
2023-02-08T11:26:50.976Z,2.53
2023-02-08T11:30:12.852Z,2.26
2023-02-08T11:33:23.057Z,2.65
2023-02-08T11:36:26.459Z,3.74
2023-02-08T11:39:32.278Z,5.84
2023-02-08T11:42:36.628Z,8.89
2023-02-08T11:45:40.498Z,8.58
2023-02-08T11:48:49.729Z,9.29
2023-02-08T11:51:55.274Z,10.76
2023-02-08T11:55:24.336Z,11.33
2023-02-08T11:58:28.433Z,11.67
2023-02-08T12:01:33.682Z,9.58
2023-02-08T12:04:37.201Z,10.02
2023-02-08T12:07:41.514Z,12.01
2023-02-08T12:10:48.431Z,9.55
2023-02-08T12:13:54.738Z,8.59
2023-02-08T12:16:59.022Z,10.14
2023-02-08T12:20:01.658Z,10.78
2023-02-08T12:23:07.414Z,11.18
2023-02-08T12:26:19.228Z,12.71
2023-02-08T12:29:38.423Z,14.61
2023-02-08T12:32:57.953Z,15.30
2023-02-08T12:36:10.668Z,12.57
2023-02-08T12:39:51.243Z,12.71
2023-02-08T12:42:54.242Z,14.88
2023-02-08T12:46:00.295Z,14.64
2023-02-08T12:49:29.697Z,13.41
2023-02-08T12:52:35.347Z,10.60
2023-02-08T12:55:39.979Z,9.03
2023-02-08T12:58:53.528Z,10.53
2023-02-08T13:02:02.007Z,10.46
2023-02-08T13:05:06.748Z,11.21
2023-02-08T13:08:25.767Z,9.31
2023-02-08T13:11:45.536Z,8.55
2023-02-08T13:14:52.791Z,9.23
2023-02-08T13:17:57.644Z,9.20
2023-02-08T13:21:07.381Z,9.84
2023-02-08T13:24:28.968Z,8.19
2023-02-08T13:27:32.044Z,7.80
2023-02-08T13:30:39.800Z,6.49
2023-02-08T13:33:59.341Z,5.57
2023-02-08T13:37:24.658Z,6.35
2023-02-08T13:40:35.018Z,6.50
2023-02-08T13:43:44.124Z,6.31
2023-02-08T13:46:51.591Z,6.16
2023-02-08T13:49:57.576Z,5.51
2023-02-08T13:53:03.794Z,5.44
2023-02-08T13:56:12.381Z,5.23
2023-02-08T13:59:34.419Z,4.50
2023-02-08T14:02:59.533Z,4.55
2023-02-08T14:06:08.868Z,3.96
2023-02-08T14:09:17.565Z,3.56
2023-02-08T14:12:34.750Z,3.40
2023-02-08T14:15:41.625Z,3.59
2023-02-08T14:18:54.445Z,3.39
2023-02-08T14:22:01.537Z,3.16
2023-02-08T14:25:19.063Z,2.90
2023-02-08T14:28:34.538Z,3.02
2023-02-08T14:31:42.125Z,2.68
2023-02-08T14:34:48.119Z,2.45
2023-02-08T14:38:12.171Z,2.37
2023-02-08T14:41:36.283Z,2.20
2023-02-08T14:44:42.967Z,2.17
2023-02-08T14:47:49.762Z,2.12
2023-02-08T14:51:03.279Z,2.11
2023-02-08T14:54:18.162Z,2.08
2023-02-08T14:57:23.541Z,2.00
2023-02-08T15:00:30.807Z,2.05
2023-02-08T15:03:37.059Z,2.07
2023-02-08T15:06:40.978Z,2.06
2023-02-08T15:09:46.627Z,2.01
2023-02-08T15:12:53.617Z,2.07
2023-02-08T15:15:59.709Z,1.89
2023-02-08T15:19:06.213Z,1.85
2023-02-08T15:22:19.459Z,1.74
2023-02-08T15:25:28.526Z,1.72
2023-02-08T15:28:37.479Z,1.58
2023-02-08T15:31:42.248Z,1.46
2023-02-08T15:34:51.931Z,1.43
2023-02-08T15:37:58.249Z,1.31
2023-02-08T15:41:08.392Z,1.18
2023-02-08T15:44:14.985Z,1.01
2023-02-08T15:47:25.561Z,0.87
2023-02-08T15:50:32.777Z,0.86
2023-02-08T15:53:44.192Z,0.80
2023-02-08T15:56:54.459Z,0.77
2023-02-08T16:00:00.174Z,0.58
2023-02-08T16:03:19.104Z,0.51
2023-02-08T16:06:24.866Z,0.39
2023-02-08T16:09:30.356Z,0.38
2023-02-08T16:12:38.421Z,0.44
2023-02-08T16:15:46.564Z,0.44
2023-02-08T16:19:00.260Z,0.46
2023-02-08T16:22:14.668Z,0.32
2023-02-08T16:25:26.514Z,0.10
2023-02-08T16:28:34.603Z,0.06
2023-02-08T16:31:42.027Z,0.15
2023-02-08T16:34:48.935Z,-0.05
2023-02-08T16:38:00.052Z,0.02
2023-02-08T16:41:13.645Z,-0.09
2023-02-08T16:44:24.121Z,-0.20
2023-02-08T16:47:39.398Z,-0.40
2023-02-08T16:50:46.148Z,-0.42
2023-02-08T16:53:55.620Z,-0.63
2023-02-08T16:57:03.693Z,-0.65
2023-02-08T17:00:17.142Z,-0.68
2023-02-08T17:03:26.887Z,-0.76
2023-02-08T17:06:34.061Z,-0.68
2023-02-08T17:09:46.043Z,-0.71
2023-02-08T17:13:03.830Z,-0.90
2023-02-08T17:16:20.309Z,-0.97
2023-02-08T17:19:25.608Z,-0.89
2023-02-08T17:22:33.059Z,-0.80
2023-02-08T17:25:37.815Z,-0.87
2023-02-08T17:28:43.071Z,-0.78
2023-02-08T17:31:49.394Z,-0.77
2023-02-08T17:34:55.812Z,-0.79
2023-02-08T17:38:01.917Z,-0.90
2023-02-08T17:41:13.880Z,-0.93
2023-02-08T17:44:22.334Z,-1.09
2023-02-08T17:47:30.270Z,-1.20
2023-02-08T17:50:35.064Z,-1.26
2023-02-08T17:53:42.107Z,-1.15
2023-02-08T17:56:46.748Z,-1.09
2023-02-08T17:59:52.976Z,-1.15
2023-02-08T18:03:01.161Z,-1.15
2023-02-08T18:06:06.356Z,-1.28
2023-02-08T18:09:10.305Z,-1.34
2023-02-08T18:12:16.069Z,-1.45
2023-02-08T18:15:22.990Z,-1.49
2023-02-08T18:18:31.276Z,-1.56
2023-02-08T18:21:40.768Z,-1.66
2023-02-08T18:24:46.425Z,-1.79
2023-02-08T18:27:54.086Z,-1.73
2023-02-08T18:31:04.603Z,-1.66
2023-02-08T18:34:12.124Z,-1.65
2023-02-08T18:37:16.502Z,-1.65
2023-02-08T18:40:20.199Z,-1.73
2023-02-08T18:43:27.708Z,-1.73
2023-02-08T18:46:33.955Z,-1.76
2023-02-08T18:49:41.449Z,-1.82
2023-02-08T18:52:47.929Z,-1.93
2023-02-08T18:55:57.900Z,-2.13
2023-02-08T18:59:07.490Z,-2.15
2023-02-08T19:02:20.527Z,-2.27
2023-02-08T19:05:30.789Z,-2.36
2023-02-08T19:08:41.268Z,-2.40
2023-02-08T19:11:47.217Z,-2.35
2023-02-08T19:14:53.635Z,-2.38
2023-02-08T19:17:59.495Z,-2.41
2023-02-08T19:21:06.409Z,-2.45
2023-02-08T19:24:15.222Z,-2.43
2023-02-08T19:27:22.950Z,-2.45
2023-02-08T19:30:27.130Z,-2.50
2023-02-08T19:33:32.978Z,-2.56
2023-02-08T19:36:41.869Z,-2.68
2023-02-08T19:39:50.970Z,-2.65
2023-02-08T19:42:59.662Z,-2.63
2023-02-08T19:46:16.632Z,-2.60
2023-02-08T19:49:25.034Z,-2.70
2023-02-08T19:52:30.390Z,-2.80
2023-02-08T19:55:34.842Z,-2.77
2023-02-08T19:58:39.375Z,-2.85
2023-02-08T20:01:43.531Z,-2.81
2023-02-08T20:04:47.744Z,-2.83
2023-02-08T20:07:53.514Z,-2.92
2023-02-08T20:11:01.569Z,-2.91
2023-02-08T20:14:07.313Z,-2.92
2023-02-08T20:17:12.503Z,-3.01
2023-02-08T20:20:17.691Z,-3.04
2023-02-08T20:23:23.120Z,-3.11
2023-02-08T20:26:29.702Z,-3.13
2023-02-08T20:29:35.469Z,-3.19
2023-02-08T20:32:42.024Z,-3.23
2023-02-08T20:35:48.862Z,-3.26
2023-02-08T20:38:59.198Z,-3.20
2023-02-08T20:42:04.163Z,-3.21
2023-02-08T20:45:09.738Z,-3.29
2023-02-08T20:48:15.140Z,-3.38
2023-02-08T20:51:21.665Z,-3.44
2023-02-08T20:54:28.481Z,-3.52
2023-02-08T20:57:35.205Z,-3.58
2023-02-08T21:00:45.613Z,-3.58
2023-02-08T21:03:53.471Z,-3.57
2023-02-08T21:06:59.842Z,-3.54
2023-02-08T21:10:05.511Z,-3.48
2023-02-08T21:13:17.632Z,-3.52
2023-02-08T21:16:24.043Z,-3.37
2023-02-08T21:19:36.122Z,-3.45
2023-02-08T21:22:41.790Z,-3.45
2023-02-08T21:25:46.691Z,-3.52
2023-02-08T21:28:52.918Z,-3.56
2023-02-08T21:31:59.162Z,-3.62
2023-02-08T21:35:04.040Z,-3.66
2023-02-08T21:38:09.937Z,-3.75
2023-02-08T21:41:21.103Z,-3.76
2023-02-08T21:44:28.685Z,-3.53
2023-02-08T21:47:36.576Z,-3.22
2023-02-08T21:51:03.817Z,-3.24
2023-02-08T21:54:32.216Z,-3.24
2023-02-08T21:57:41.334Z,-3.30
2023-02-08T22:00:46.498Z,-3.48
2023-02-08T22:03:53.601Z,-3.53
2023-02-08T22:06:58.572Z,-3.60
2023-02-08T22:10:06.547Z,-3.61
2023-02-08T22:13:15.671Z,-3.74
2023-02-08T22:16:19.903Z,-3.43
2023-02-08T22:19:25.978Z,-3.46
2023-02-08T22:22:32.323Z,-3.61
2023-02-08T22:25:41.910Z,-3.66
2023-02-08T22:28:51.791Z,-3.79
2023-02-08T22:32:02.010Z,-3.87
2023-02-08T22:35:10.583Z,-3.95
2023-02-08T22:38:17.220Z,-4.08
2023-02-08T22:41:23.900Z,-4.12
2023-02-08T22:44:33.573Z,-4.11
2023-02-08T22:47:41.303Z,-4.16
2023-02-08T22:50:54.403Z,-4.16
2023-02-08T22:54:01.886Z,-4.05
2023-02-08T22:57:07.660Z,-4.13
2023-02-08T23:00:14.613Z,-4.10
2023-02-08T23:03:21.844Z,-4.16
2023-02-08T23:06:32.021Z,-4.07
2023-02-08T23:09:39.736Z,-4.08
2023-02-08T23:12:45.959Z,-4.09
2023-02-08T23:15:54.905Z,-4.17
2023-02-08T23:19:03.004Z,-4.31
2023-02-08T23:22:12.553Z,-4.37
2023-02-08T23:25:21.952Z,-4.39
2023-02-08T23:28:30.247Z,-4.36
2023-02-08T23:31:40.297Z,-4.48
2023-02-08T23:34:50.216Z,-4.50
2023-02-08T23:37:56.562Z,-4.47
2023-02-08T23:41:09.216Z,-4.43
2023-02-08T23:44:18.547Z,-4.29
2023-02-08T23:47:26.266Z,-4.39
2023-02-08T23:50:33.761Z,-4.46
2023-02-08T23:53:43.141Z,-4.68
2023-02-08T23:56:54.573Z,-4.77
